Terminal Aerodrome Forecast
Issued by NWS

Home | Current Version | Previous Version | Text Only | Print | Product List | Glossary On
Versions: 1 2 3 4 5 6 7 8 9 10 11 12
000
FTPA31 PHFO 221136
TAFHOG
TAF
PHOG 221136Z 2212/2312 VRB04KT P6SM FEW025 SCT045
     FM222100 05012KT P6SM FEW045
     FM230000 05012KT P6SM SCT045
     FM230400 05008KT P6SM FEW045
      AMD LTD TO VIS AND WIND TIL 221600=

USA.gov is the U.S. government's official web portal to all federal, state and local government web resources and services.